Time;durP1;ratioP1;P1;durP2;ratioP2;P2;SDS_P1;SDS_P2;PMS_P1;PMS_P2;Temp;Humidity;BMP_temperature;BMP_pressure;BME280_temperature;BME280_humidity;BME280_pressure;Samples;Min_cycle;Max_cycle;Signal;HPM_P1;HPM_P2
2022/04/14 00:00:02;;;;;;;5.32;1.85;;;21.70;99.90;;;;;;5068415;28;20078;-77
2022/04/14 00:02:29;;;;;;;9.60;1.58;;;21.60;99.90;;;;;;5068571;28;20039;-77
2022/04/14 00:04:56;;;;;;;12.88;5.63;;;21.20;99.90;;;;;;5068667;28;20112;-76
2022/04/14 00:07:23;;;;;;;28.52;15.50;;;21.00;99.90;;;;;;5070284;28;20118;-76
2022/04/14 00:09:51;;;;;;;9.88;2.40;;;20.60;99.90;;;;;;5070091;28;20055;-76
2022/04/14 00:12:18;;;;;;;8.23;1.20;;;20.40;99.90;;;;;;5069482;28;20029;-76
2022/04/14 00:14:45;;;;;;;8.93;1.08;;;20.50;99.90;;;;;;5053500;28;20028;-77
2022/04/14 00:17:12;;;;;;;9.43;1.38;;;20.30;99.90;;;;;;5044516;28;20505;-75
2022/04/14 00:19:41;;;;;;;13.57;1.67;;;20.10;99.90;;;;;;5070549;28;20032;-78
2022/04/14 00:22:08;;;;;;;6.38;0.95;;;20.00;99.90;;;;;;5071857;28;20031;-77
2022/04/14 00:24:35;;;;;;;6.93;1.02;;;19.90;99.90;;;;;;5054196;28;20040;-78
2022/04/14 00:27:03;;;;;;;7.70;0.90;;;19.80;99.90;;;;;;5071989;28;20154;-77
2022/04/14 00:29:31;;;;;;;4.70;1.50;;;20.10;99.90;;;;;;5053722;28;20393;-78
2022/04/14 00:31:58;;;;;;;3.72;1.00;;;20.10;99.90;;;;;;5069492;28;20624;-77
2022/04/14 00:34:25;;;;;;;4.28;0.70;;;20.20;99.90;;;;;;5050721;28;20484;-76
2022/04/14 00:36:53;;;;;;;6.93;2.00;;;20.20;99.90;;;;;;5073562;28;20025;-76
2022/04/14 00:39:20;;;;;;;7.80;1.30;;;20.20;99.90;;;;;;5074700;28;20040;-75
2022/04/14 00:41:47;;;;;;;4.82;1.15;;;20.30;99.90;;;;;;5058517;28;20070;-76
2022/04/14 00:44:14;;;;;;;7.07;1.00;;;20.20;99.90;;;;;;5063970;28;20230;-76
2022/04/14 00:46:42;;;;;;;4.38;0.70;;;20.20;99.90;;;;;;5057788;22;20045;-76
2022/04/14 00:49:11;;;;;;;7.53;0.95;;;20.20;99.90;;;;;;5053011;23;20045;-76
2022/04/14 00:51:38;;;;;;;7.93;1.90;;;20.10;99.90;;;;;;5041626;23;20081;-76
2022/04/14 00:56:34;;;;;;;6.40;0.95;;;20.10;99.90;;;;;;5028878;28;20387;-76
2022/04/14 00:59:01;;;;;;;2.75;1.13;;;20.00;99.90;;;;;;5022657;28;20065;-76
2022/04/14 01:01:29;;;;;;;7.95;1.00;;;20.00;99.90;;;;;;5012057;28;20397;-76
2022/04/14 01:03:58;;;;;;;8.35;1.42;;;19.90;99.90;;;;;;5047973;23;20405;-76
2022/04/14 01:06:29;;;;;;;5.00;1.00;;;19.80;99.90;;;;;;5029719;28;20025;-76
2022/04/14 01:11:42;;;;;;;5.40;1.27;;;20.00;99.90;;;;;;5051636;28;20553;-76
2022/04/14 01:14:18;;;;;;;8.00;1.63;;;19.90;99.90;;;;;;5066712;28;20024;-76
2022/04/14 01:16:48;;;;;;;8.38;1.10;;;19.70;99.90;;;;;;5055570;28;20025;-76
2022/04/14 01:19:15;;;;;;;10.30;1.73;;;19.30;99.90;;;;;;5070566;23;20045;-76
2022/04/14 01:21:54;;;;;;;5.38;1.50;;;19.20;99.90;;;;;;5053471;28;20485;-77
2022/04/14 01:24:24;;;;;;;8.63;0.80;;;19.00;99.90;;;;;;5027068;28;20030;-78
2022/04/14 01:26:51;;;;;;;6.50;1.65;;;19.10;99.90;;;;;;5032830;28;20025;-77
2022/04/14 01:29:26;;;;;;;5.75;1.30;;;19.50;99.90;;;;;;5032735;28;20052;-77
2022/04/14 01:31:55;;;;;;;7.57;1.23;;;20.40;99.90;;;;;;5031288;28;20100;-77
2022/04/14 01:34:22;;;;;;;3.28;0.57;;;20.40;99.90;;;;;;5045648;28;20040;-76
2022/04/14 01:36:50;;;;;;;11.27;1.08;;;20.40;99.90;;;;;;5053559;28;20019;-77
2022/04/14 01:39:23;;;;;;;5.78;1.00;;;20.40;99.90;;;;;;5045661;28;20037;-78
2022/04/14 01:41:50;;;;;;;7.03;1.52;;;21.10;99.90;;;;;;5049827;28;20063;-78
2022/04/14 01:44:17;;;;;;;10.30;1.40;;;22.00;99.90;;;;;;5060546;28;20021;-77
2022/04/14 01:46:45;;;;;;;5.95;1.20;;;21.80;99.90;;;;;;5052901;28;20100;-77
2022/04/14 01:49:13;;;;;;;6.60;1.15;;;21.70;99.90;;;;;;5049398;28;20048;-77
2022/04/14 01:54:09;;;;;;;6.78;1.10;;;22.10;99.90;;;;;;5036248;28;20512;-77
2022/04/14 01:56:37;;;;;;;5.63;0.68;;;21.90;99.90;;;;;;5030056;28;20025;-77
2022/04/14 01:59:04;;;;;;;7.53;0.73;;;21.60;99.90;;;;;;5045592;28;20082;-78
2022/04/14 02:01:31;;;;;;;6.18;1.10;;;21.50;99.90;;;;;;5050528;28;20029;-77
2022/04/14 02:03:58;;;;;;;7.15;0.80;;;21.30;99.90;;;;;;5048981;28;20037;-77
2022/04/14 02:06:26;;;;;;;6.78;1.13;;;21.20;99.90;;;;;;5051480;28;20032;-77
2022/04/14 02:08:53;;;;;;;5.40;0.90;;;21.80;99.90;;;;;;5042138;28;20025;-77
2022/04/14 02:11:20;;;;;;;5.40;0.80;;;22.30;99.90;;;;;;5043347;28;20108;-77
2022/04/14 02:13:48;;;;;;;2.90;0.63;;;22.40;99.90;;;;;;5051376;28;20017;-78
2022/04/14 02:16:15;;;;;;;6.03;1.25;;;22.30;99.90;;;;;;5041885;28;20029;-77
2022/04/14 02:18:43;;;;;;;4.97;0.80;;;21.90;99.90;;;;;;5050841;28;20036;-77
2022/04/14 02:21:10;;;;;;;2.25;0.65;;;21.70;99.90;;;;;;5030500;28;20052;-78
2022/04/14 02:23:38;;;;;;;4.25;1.08;;;21.70;99.90;;;;;;5041522;28;20112;-78
2022/04/14 02:26:05;;;;;;;5.07;1.63;;;21.60;99.90;;;;;;5053779;28;20036;-78
2022/04/14 02:28:32;;;;;;;5.35;0.93;;;21.70;99.90;;;;;;5050044;28;20142;-78
2022/04/14 02:31:00;;;;;;;7.07;1.05;;;22.00;99.90;;;;;;5052628;28;20025;-77
2022/04/14 02:33:27;;;;;;;5.28;0.47;;;21.90;99.90;;;;;;5033333;28;20056;-77
2022/04/14 02:35:56;;;;;;;5.82;0.68;;;21.60;99.90;;;;;;5023188;28;20111;-77
2022/04/14 02:38:24;;;;;;;2.78;0.40;;;21.60;99.90;;;;;;5052261;28;20036;-77
2022/04/14 02:40:52;;;;;;;8.93;0.80;;;21.30;99.90;;;;;;5047706;28;20017;-78
2022/04/14 02:43:21;;;;;;;5.75;0.90;;;21.20;99.90;;;;;;5046206;28;20043;-78
2022/04/14 02:45:48;;;;;;;4.35;0.57;;;21.10;99.90;;;;;;5024973;28;20067;-77
2022/04/14 02:48:15;;;;;;;4.70;0.60;;;21.00;99.90;;;;;;5051850;28;20083;-78
2022/04/14 02:50:43;;;;;;;3.05;0.43;;;20.90;99.90;;;;;;5049512;28;20033;-77
2022/04/14 02:53:11;;;;;;;4.35;0.98;;;20.90;99.90;;;;;;5045409;28;22083;-78
2022/04/14 02:55:38;;;;;;;4.60;0.40;;;20.90;99.90;;;;;;5052090;28;20029;-78
2022/04/14 02:58:05;;;;;;;3.92;0.47;;;21.10;99.90;;;;;;5046281;28;20044;-78
2022/04/14 03:00:33;;;;;;;8.45;1.00;;;21.40;99.90;;;;;;5072252;22;20568;-77
2022/04/14 03:03:00;;;;;;;4.45;0.40;;;21.50;99.90;;;;;;5048887;28;20056;-77
2022/04/14 03:05:28;;;;;;;4.07;0.40;;;21.30;99.90;;;;;;5050118;28;20366;-77
2022/04/14 03:07:55;;;;;;;1.02;0.40;;;21.20;99.90;;;;;;5059552;23;20110;-77
2022/04/14 03:10:23;;;;;;;3.65;0.32;;;21.20;99.90;;;;;;5065901;22;20037;-79
2022/04/14 03:12:51;;;;;;;3.08;0.20;;;21.30;99.90;;;;;;5050073;28;20025;-79
2022/04/14 03:15:19;;;;;;;4.28;0.75;;;21.20;99.90;;;;;;5042527;28;20028;-77
2022/04/14 03:17:49;;;;;;;3.50;0.60;;;21.30;99.90;;;;;;5049418;28;20028;-77
2022/04/14 03:20:17;;;;;;;5.43;0.50;;;21.70;99.90;;;;;;5045396;22;20511;-78
2022/04/14 03:22:44;;;;;;;3.65;0.20;;;21.70;99.90;;;;;;5029645;28;20014;-79
2022/04/14 03:25:15;;;;;;;2.90;0.60;;;22.10;99.90;;;;;;5028224;28;20695;-78
2022/04/14 03:27:43;;;;;;;1.63;0.50;;;22.40;99.90;;;;;;5024137;28;20025;-79
2022/04/14 03:30:11;;;;;;;4.72;0.45;;;22.60;99.90;;;;;;5031882;28;20018;-77
2022/04/14 03:32:43;;;;;;;3.15;0.20;;;23.20;99.90;;;;;;5040328;28;20025;-77
2022/04/14 03:35:11;;;;;;;1.30;0.20;;;23.10;99.90;;;;;;5017092;28;20501;-80
2022/04/14 03:37:40;;;;;;;3.80;0.52;;;22.90;99.90;;;;;;5040100;22;20505;-77
2022/04/14 03:40:09;;;;;;;2.25;0.30;;;22.70;99.90;;;;;;5037014;28;20065;-79
2022/04/14 03:42:36;;;;;;;0.73;0.10;;;23.00;99.90;;;;;;5033179;28;20489;-76
2022/04/14 03:45:08;;;;;;;2.53;0.30;;;23.40;99.90;;;;;;5031222;28;20111;-76
2022/04/14 03:47:35;;;;;;;0.85;0.40;;;23.40;99.90;;;;;;5033826;28;20030;-74
2022/04/14 03:50:03;;;;;;;1.50;0.28;;;23.30;99.90;;;;;;5032617;28;20034;-75
2022/04/14 03:52:30;;;;;;;0.90;0.13;;;23.20;99.90;;;;;;5031757;28;20105;-75
2022/04/14 03:54:58;;;;;;;1.65;0.10;;;22.90;99.90;;;;;;5022531;28;20029;-73
2022/04/14 03:57:25;;;;;;;1.98;0.20;;;23.00;99.90;;;;;;5029439;28;20139;-74
2022/04/14 03:59:53;;;;;;;2.90;0.30;;;22.90;99.90;;;;;;5026886;28;20057;-73
2022/04/14 04:02:20;;;;;;;4.00;0.50;;;23.00;99.90;;;;;;5026386;28;20049;-74
2022/04/14 04:04:47;;;;;;;6.18;0.70;;;23.10;99.90;;;;;;5025029;28;20032;-73
2022/04/14 04:07:15;;;;;;;2.42;0.60;;;22.90;99.90;;;;;;5022128;28;20026;-73
2022/04/14 04:09:42;;;;;;;3.17;0.20;;;22.70;99.90;;;;;;5028219;28;20034;-72
2022/04/14 04:12:10;;;;;;;1.83;0.20;;;22.60;99.90;;;;;;5036609;28;20167;-73
2022/04/14 04:14:37;;;;;;;1.75;0.20;;;22.60;99.90;;;;;;5039252;28;20068;-74
2022/04/14 04:17:05;;;;;;;2.20;0.50;;;22.40;99.90;;;;;;5015149;28;20013;-72
2022/04/14 04:19:32;;;;;;;1.95;0.20;;;22.20;99.90;;;;;;5030349;28;20438;-72
2022/04/14 04:21:59;;;;;;;1.60;0.10;;;22.20;99.90;;;;;;5030256;28;20033;-73
2022/04/14 04:24:27;;;;;;;1.77;0.20;;;22.10;99.90;;;;;;5019268;28;20047;-73
2022/04/14 04:26:55;;;;;;;3.70;0.60;;;22.00;99.90;;;;;;5063199;23;20057;-73
2022/04/14 04:29:23;;;;;;;4.45;0.45;;;22.20;99.90;;;;;;5053875;28;20028;-72
2022/04/14 04:31:50;;;;;;;1.50;0.20;;;22.30;99.90;;;;;;5054366;28;20040;-73
2022/04/14 04:34:17;;;;;;;2.45;0.20;;;22.10;99.90;;;;;;5052702;28;20029;-72
2022/04/14 04:36:47;;;;;;;3.25;0.10;;;22.00;99.90;;;;;;5050796;28;20504;-74
2022/04/14 04:39:15;;;;;;;1.77;0.25;;;21.90;99.90;;;;;;5050538;28;20037;-73
2022/04/14 04:41:42;;;;;;;3.22;0.50;;;21.80;99.90;;;;;;5048132;28;20032;-73
2022/04/14 04:44:10;;;;;;;2.33;0.20;;;21.90;99.90;;;;;;5056587;28;20032;-72
2022/04/14 04:46:37;;;;;;;1.30;0.08;;;21.70;99.90;;;;;;5054360;28;20028;-72
2022/04/14 04:49:04;;;;;;;2.17;0.20;;;21.70;99.90;;;;;;5044026;28;20021;-73
2022/04/14 04:51:32;;;;;;;3.45;0.10;;;21.70;99.90;;;;;;5050859;28;20083;-72
2022/04/14 04:53:59;;;;;;;2.72;0.15;;;21.70;99.90;;;;;;5046161;28;20485;-73
2022/04/14 04:56:26;;;;;;;4.13;0.40;;;21.60;99.90;;;;;;5075897;28;20028;-73
2022/04/14 04:58:53;;;;;;;1.73;0.20;;;21.60;99.90;;;;;;5070701;28;20392;-72
2022/04/14 05:01:21;;;;;;;3.63;0.20;;;21.50;99.90;;;;;;5072178;28;20024;-72
2022/04/14 05:03:48;;;;;;;1.33;0.52;;;21.40;99.90;;;;;;5073286;28;20035;-74
2022/04/14 05:06:15;;;;;;;3.13;0.10;;;21.50;99.90;;;;;;5075822;28;20029;-72
2022/04/14 05:08:42;;;;;;;1.98;0.20;;;21.50;99.90;;;;;;5071973;28;20022;-73
2022/04/14 05:11:10;;;;;;;4.30;0.55;;;21.50;99.90;;;;;;5071970;28;20464;-72
2022/04/14 05:13:37;;;;;;;1.52;0.20;;;21.50;99.90;;;;;;5073350;28;20066;-73
2022/04/14 05:16:06;;;;;;;2.17;0.40;;;21.50;99.90;;;;;;5064154;28;20019;-72
2022/04/14 05:18:34;;;;;;;4.40;0.40;;;21.40;99.90;;;;;;5072268;28;20028;-72
2022/04/14 05:21:01;;;;;;;2.70;0.35;;;21.40;99.90;;;;;;5073395;28;20027;-74
2022/04/14 05:23:29;;;;;;;0.95;0.10;;;21.40;99.90;;;;;;5062178;28;20032;-73
2022/04/14 05:25:56;;;;;;;4.50;0.20;;;21.40;99.90;;;;;;5069829;28;20056;-72
2022/04/14 05:28:23;;;;;;;2.78;0.20;;;21.40;99.90;;;;;;5061546;23;20037;-74
2022/04/14 05:30:51;;;;;;;3.78;0.47;;;21.40;99.90;;;;;;5034873;28;20026;-73
2022/04/14 05:33:18;;;;;;;2.70;0.13;;;21.40;99.90;;;;;;5048320;22;20146;-73
2022/04/14 05:35:46;;;;;;;1.48;0.22;;;21.30;99.90;;;;;;5032177;28;20057;-74
2022/04/14 05:38:14;;;;;;;1.40;0.20;;;21.30;99.90;;;;;;5040730;28;20049;-72
2022/04/14 05:40:45;;;;;;;4.10;0.88;;;21.30;99.90;;;;;;5034671;28;20029;-73
2022/04/14 05:43:21;;;;;;;2.20;0.22;;;21.30;99.90;;;;;;5020311;28;20403;-73
2022/04/14 05:45:49;;;;;;;4.57;0.30;;;21.30;99.90;;;;;;5032493;28;20036;-73
2022/04/14 05:48:18;;;;;;;2.30;0.20;;;21.30;99.90;;;;;;5042223;22;20077;-73
2022/04/14 05:50:49;;;;;;;1.08;0.10;;;21.40;99.90;;;;;;5035211;28;20021;-73
2022/04/14 05:53:18;;;;;;;4.13;0.20;;;21.40;99.90;;;;;;5034837;28;20021;-74
2022/04/14 05:55:47;;;;;;;3.53;0.43;;;21.40;99.90;;;;;;5079317;23;20056;-74
2022/04/14 05:58:14;;;;;;;3.20;0.70;;;21.30;99.90;;;;;;5061595;28;20025;-73
2022/04/14 06:00:41;;;;;;;1.50;0.10;;;21.20;99.90;;;;;;5073779;28;20032;-73
2022/04/14 06:03:09;;;;;;;1.75;0.17;;;21.20;99.90;;;;;;5053439;28;20492;-73
2022/04/14 06:05:36;;;;;;;2.88;0.35;;;21.30;99.90;;;;;;5071791;28;20029;-74
2022/04/14 06:08:04;;;;;;;3.55;0.30;;;21.30;99.90;;;;;;5069262;28;20047;-74
2022/04/14 06:10:31;;;;;;;2.05;0.50;;;21.20;99.90;;;;;;5062851;28;20039;-72
2022/04/14 06:12:58;;;;;;;2.17;0.20;;;21.20;99.90;;;;;;5066425;28;20369;-74
2022/04/14 06:15:30;;;;;;;1.58;0.30;;;21.20;99.90;;;;;;5075140;28;20024;-74
2022/04/14 06:17:58;;;;;;;2.53;0.57;;;21.20;99.90;;;;;;5067201;28;20491;-73
2022/04/14 06:20:25;;;;;;;2.03;0.25;;;21.10;99.90;;;;;;5065403;28;20392;-74
2022/04/14 06:22:56;;;;;;;3.05;0.60;;;21.10;99.90;;;;;;5052144;28;20032;-75
2022/04/14 06:25:23;;;;;;;1.65;0.20;;;21.10;99.90;;;;;;5061235;28;20024;-74
2022/04/14 06:27:51;;;;;;;5.43;0.60;;;21.10;99.90;;;;;;5067913;22;20651;-74
2022/04/14 06:30:20;;;;;;;1.48;0.22;;;21.10;99.90;;;;;;5047351;28;20032;-73
2022/04/14 06:33:02;;;;;;;2.80;0.40;;;21.00;99.90;;;;;;5051089;28;20087;-74
2022/04/14 06:35:30;;;;;;;3.42;0.90;;;21.00;99.90;;;;;;5034333;28;20029;-73
2022/04/14 06:37:58;;;;;;;3.40;0.20;;;20.90;99.90;;;;;;5044361;28;20116;-73
2022/04/14 06:40:26;;;;;;;1.52;0.30;;;20.90;99.90;;;;;;5051281;28;20029;-73
2022/04/14 06:42:53;;;;;;;1.90;0.10;;;20.80;99.90;;;;;;5051303;28;20039;-74
2022/04/14 06:45:20;;;;;;;2.10;0.40;;;20.80;99.90;;;;;;5047822;28;20100;-74
2022/04/14 06:47:47;;;;;;;1.00;0.20;;;20.80;99.90;;;;;;5044619;28;20024;-73
2022/04/14 06:50:15;;;;;;;3.67;0.45;;;20.80;99.90;;;;;;5052064;28;20021;-74
2022/04/14 06:52:42;;;;;;;1.35;0.28;;;20.80;99.90;;;;;;5073536;23;20049;-74
2022/04/14 06:55:15;;;;;;;4.20;0.10;;;20.70;99.90;;;;;;5065000;28;20020;-74
2022/04/14 06:57:43;;;;;;;2.60;0.40;;;20.70;99.90;;;;;;5063822;28;20025;-74
2022/04/14 07:00:11;;;;;;;4.07;0.30;;;20.70;99.90;;;;;;5070481;28;20285;-73
2022/04/14 07:02:58;;;;;;;4.18;0.50;;;20.60;99.90;;;;;;5072006;28;20059;-74
2022/04/14 07:05:26;;;;;;;2.60;0.55;;;20.60;99.90;;;;;;5072735;28;20477;-74
2022/04/14 07:07:53;;;;;;;1.67;0.20;;;20.50;99.90;;;;;;5068805;28;20048;-74
2022/04/14 07:10:20;;;;;;;6.90;0.50;;;20.50;99.90;;;;;;5068788;28;20023;-74
2022/04/14 07:12:48;;;;;;;3.85;0.20;;;20.50;99.90;;;;;;5073317;28;20036;-75
2022/04/14 07:15:15;;;;;;;4.18;0.30;;;20.40;99.90;;;;;;5051790;28;20138;-75
2022/04/14 07:17:44;;;;;;;5.32;0.63;;;20.40;99.90;;;;;;5069636;28;20099;-75
2022/04/14 07:20:11;;;;;;;2.38;0.60;;;20.30;99.90;;;;;;5070045;28;20499;-74
2022/04/14 07:22:51;;;;;;;4.65;0.93;;;20.30;99.90;;;;;;5071740;28;20033;-74
2022/04/14 07:25:19;;;;;;;1.45;0.65;;;20.30;99.90;;;;;;5071492;28;20438;-75
2022/04/14 07:27:46;;;;;;;2.38;0.50;;;20.30;99.90;;;;;;5056694;28;20032;-74
2022/04/14 07:30:13;;;;;;;1.38;0.40;;;20.10;99.90;;;;;;5072236;28;20108;-75
2022/04/14 07:32:45;;;;;;;2.17;0.60;;;20.10;99.90;;;;;;5071725;28;20465;-74
2022/04/14 07:35:18;;;;;;;2.55;0.77;;;20.00;99.90;;;;;;5067218;28;20028;-75
2022/04/14 07:37:45;;;;;;;2.30;0.43;;;20.00;99.90;;;;;;5063341;28;20028;-75
2022/04/14 07:40:12;;;;;;;7.65;0.73;;;20.00;99.90;;;;;;5057907;28;20120;-74
2022/04/14 07:42:42;;;;;;;2.53;0.30;;;20.00;99.90;;;;;;5050270;28;20024;-74
2022/04/14 07:45:11;;;;;;;3.45;0.35;;;19.90;99.90;;;;;;5062943;28;20028;-75
2022/04/14 07:47:42;;;;;;;5.05;0.60;;;19.90;99.90;;;;;;5068013;28;20017;-75
2022/04/14 07:50:10;;;;;;;3.45;0.50;;;19.90;99.90;;;;;;5072198;28;20527;-74
2022/04/14 07:52:55;;;;;;;3.58;0.40;;;19.90;99.90;;;;;;5042223;28;20050;-74
2022/04/14 07:55:25;;;;;;;4.32;0.40;;;19.80;99.90;;;;;;5025199;28;20121;-74
2022/04/14 07:57:54;;;;;;;4.53;0.40;;;19.80;99.90;;;;;;5028394;28;20018;-74
2022/04/14 08:00:23;;;;;;;3.65;0.52;;;19.80;99.90;;;;;;5034796;28;20021;-74
2022/04/14 08:02:56;;;;;;;2.70;0.28;;;19.80;99.90;;;;;;5033619;28;20500;-75
2022/04/14 08:05:28;;;;;;;2.75;0.45;;;19.80;99.90;;;;;;5041155;28;20029;-79
2022/04/14 08:07:56;;;;;;;1.98;0.38;;;19.80;99.90;;;;;;5044212;28;20449;-79
2022/04/14 08:10:23;;;;;;;2.67;0.35;;;19.80;99.90;;;;;;5048887;28;20042;-80
2022/04/14 08:12:51;;;;;;;3.95;0.40;;;19.70;99.90;;;;;;5039254;28;20117;-79
2022/04/14 08:15:18;;;;;;;8.88;1.13;;;19.80;99.90;;;;;;5047972;28;20034;-78
2022/04/14 08:17:46;;;;;;;2.35;0.50;;;19.70;99.90;;;;;;5040374;28;20037;-79
2022/04/14 08:20:15;;;;;;;4.00;0.68;;;19.70;99.90;;;;;;5038344;28;20087;-73
2022/04/14 08:22:54;;;;;;;2.63;0.50;;;19.70;99.90;;;;;;5034383;28;20049;-78
2022/04/14 08:25:24;;;;;;;1.42;0.30;;;19.60;99.90;;;;;;5026311;28;20073;-79
2022/04/14 08:27:55;;;;;;;4.18;0.32;;;19.60;99.90;;;;;;5036941;28;20091;-79
2022/04/14 08:30:25;;;;;;;3.03;0.40;;;19.60;99.90;;;;;;5039593;28;20522;-79
2022/04/14 08:32:54;;;;;;;1.02;0.20;;;19.50;99.90;;;;;;5030888;28;20029;-78
2022/04/14 08:35:26;;;;;;;3.95;0.40;;;19.50;99.90;;;;;;5036310;28;20101;-78
2022/04/14 08:37:53;;;;;;;4.25;0.70;;;19.50;99.90;;;;;;5033183;28;20037;-79
2022/04/14 08:40:22;;;;;;;3.95;0.52;;;19.50;99.90;;;;;;5050679;28;20089;-80
2022/04/14 08:43:03;;;;;;;4.63;0.77;;;19.50;99.90;;;;;;5056096;28;20025;-80
2022/04/14 08:45:37;;;;;;;2.72;0.47;;;19.40;99.90;;;;;;5038315;28;20022;-80
2022/04/14 08:48:06;;;;;;;3.70;0.50;;;19.40;99.90;;;;;;5047778;28;20022;-79
2022/04/14 08:50:33;;;;;;;5.65;0.82;;;19.40;99.90;;;;;;5046688;28;20049;-80
2022/04/14 08:53:05;;;;;;;4.40;0.60;;;19.40;99.90;;;;;;5049001;28;20134;-80
2022/04/14 08:55:33;;;;;;;3.42;0.68;;;19.40;99.90;;;;;;5056012;28;20021;-80
2022/04/14 08:58:01;;;;;;;3.28;0.93;;;19.40;99.90;;;;;;5059992;28;20009;-79
2022/04/14 09:00:28;;;;;;;3.30;0.60;;;19.30;99.90;;;;;;5056931;28;20026;-79
2022/04/14 09:02:57;;;;;;;2.83;0.70;;;19.30;99.90;;;;;;5055400;28;20537;-80
2022/04/14 09:05:25;;;;;;;1.40;0.40;;;19.20;99.90;;;;;;5052289;28;20091;-79
2022/04/14 09:07:53;;;;;;;3.70;0.70;;;19.10;99.90;;;;;;5034650;28;20031;-79
2022/04/14 09:10:21;;;;;;;4.32;0.70;;;19.10;99.90;;;;;;5035439;28;20060;-79
2022/04/14 09:12:50;;;;;;;6.20;1.08;;;19.00;99.90;;;;;;5053132;28;20036;-78
2022/04/14 09:15:18;;;;;;;3.10;0.60;;;18.90;99.90;;;;;;5042368;28;20018;-79
2022/04/14 09:17:45;;;;;;;3.42;0.75;;;18.80;99.90;;;;;;5042302;28;20160;-80
2022/04/14 09:20:37;;;;;;;5.18;1.00;;;18.80;99.90;;;;;;5033954;28;20061;-79
2022/04/14 09:23:20;;;;;;;1.35;0.52;;;18.70;99.90;;;;;;5035778;28;20112;-79
2022/04/14 09:26:14;;;;;;;6.13;0.50;;;18.70;99.90;;;;;;5029559;28;20029;-79
2022/04/14 09:29:00;;;;;;;7.33;1.37;;;18.60;99.90;;;;;;5040016;28;20547;-80
2022/04/14 09:31:29;;;;;;;6.78;1.48;;;18.60;99.90;;;;;;5038659;28;20017;-81
2022/04/14 09:33:56;;;;;;;6.60;2.05;;;18.60;99.90;;;;;;5035446;28;20036;-81
2022/04/14 09:36:23;;;;;;;8.00;2.67;;;18.50;99.90;;;;;;5037335;28;20025;-79
2022/04/14 09:39:01;;;;;;;6.47;3.25;;;18.50;99.90;;;;;;5038485;28;20037;-79
2022/04/14 09:41:39;;;;;;;7.95;4.00;;;18.50;99.90;;;;;;5043927;28;20018;-79
2022/04/14 09:44:11;;;;;;;6.65;3.60;;;18.40;99.90;;;;;;5041327;28;20028;-79
2022/04/14 09:46:45;;;;;;;8.07;3.55;;;18.30;99.90;;;;;;5043929;28;20025;-79
2022/04/14 09:49:17;;;;;;;6.50;2.70;;;18.30;99.90;;;;;;5031107;28;20061;-79
2022/04/14 09:51:46;;;;;;;6.47;3.17;;;18.30;99.90;;;;;;5042775;28;20048;-79
2022/04/14 09:54:16;;;;;;;6.97;2.70;;;18.30;99.90;;;;;;5047936;28;20020;-80
2022/04/14 09:56:51;;;;;;;4.82;2.53;;;18.40;99.90;;;;;;5032763;28;20033;-80
2022/04/14 09:59:26;;;;;;;5.72;3.40;;;18.30;99.90;;;;;;5037055;28;20034;-79
2022/04/14 10:02:17;;;;;;;6.85;2.58;;;18.30;99.90;;;;;;5043447;28;20105;-79
2022/04/14 10:04:48;;;;;;;7.47;2.78;;;18.30;99.90;;;;;;5047784;28;20022;-80
2022/04/14 10:07:16;;;;;;;8.32;2.35;;;18.40;99.90;;;;;;5046709;28;20522;-80
2022/04/14 10:09:46;;;;;;;5.32;1.73;;;18.30;99.90;;;;;;5044086;28;20033;-80
2022/04/14 10:12:19;;;;;;;4.47;1.80;;;18.30;99.90;;;;;;5045349;28;20028;-79
2022/04/14 10:15:09;;;;;;;5.40;1.63;;;18.40;99.90;;;;;;5043771;28;20082;-79
2022/04/14 10:17:38;;;;;;;8.15;2.20;;;18.30;99.90;;;;;;5045489;28;20048;-79
2022/04/14 10:20:08;;;;;;;15.43;2.25;;;18.40;99.90;;;;;;5040051;28;20040;-79
2022/04/14 10:22:37;;;;;;;9.23;2.15;;;18.30;99.90;;;;;;5048730;28;20086;-79
2022/04/14 10:25:06;;;;;;;9.77;2.20;;;18.30;99.90;;;;;;5033125;28;20049;-79
2022/04/14 10:27:36;;;;;;;5.25;1.95;;;18.40;99.90;;;;;;5036879;28;20084;-79
2022/04/14 10:30:04;;;;;;;9.52;1.80;;;18.40;99.90;;;;;;5040831;28;20051;-79
2022/04/14 10:32:33;;;;;;;7.60;2.13;;;18.50;99.90;;;;;;5006794;28;20037;-80
2022/04/14 10:35:05;;;;;;;7.90;1.85;;;18.50;99.90;;;;;;5045580;28;20029;-79
2022/04/14 10:37:38;;;;;;;6.28;1.58;;;18.50;99.90;;;;;;5056273;28;20102;-80
2022/04/14 10:40:08;;;;;;;7.55;1.58;;;18.50;99.90;;;;;;5050512;28;20045;-80
2022/04/14 10:42:37;;;;;;;4.35;1.80;;;18.50;99.90;;;;;;5058277;28;20005;-79
2022/04/14 10:45:24;;;;;;;8.10;2.58;;;18.50;99.90;;;;;;5067186;28;20025;-79
2022/04/14 10:47:53;;;;;;;6.18;1.90;;;18.40;99.90;;;;;;5041788;28;20021;-79
2022/04/14 10:50:35;;;;;;;9.45;2.25;;;18.50;99.90;;;;;;5040253;28;20081;-79
2022/04/14 10:53:23;;;;;;;10.65;2.17;;;18.50;99.90;;;;;;5036452;28;20037;-79
2022/04/14 10:55:51;;;;;;;8.57;1.95;;;18.40;99.90;;;;;;5042369;28;20080;-80
2022/04/14 10:58:36;;;;;;;16.35;2.92;;;18.40;99.90;;;;;;5033067;28;20025;-79
2022/04/14 11:01:04;;;;;;;4.20;2.03;;;18.40;99.90;;;;;;5029957;28;20180;-80
2022/04/14 11:03:48;;;;;;;6.80;1.90;;;18.40;99.90;;;;;;5028040;28;20030;-80
2022/04/14 11:06:33;;;;;;;;;;;18.30;99.90;;;;;;5037113;28;20486;-80
2022/04/14 11:09:00;;;;;;;17.42;3.28;;;18.40;99.90;;;;;;5032932;28;19917;-80
2022/04/14 11:11:27;;;;;;;12.35;3.25;;;18.30;99.90;;;;;;5035572;28;20033;-81
2022/04/14 11:13:55;;;;;;;8.35;3.25;;;18.30;99.90;;;;;;5037879;28;20025;-81
2022/04/14 11:16:50;;;;;;;14.35;3.83;;;18.30;99.90;;;;;;5041428;28;20025;-80
2022/04/14 11:19:24;;;;;;;17.85;4.18;;;18.30;99.90;;;;;;5040965;28;20030;-80
2022/04/14 11:22:02;;;;;;;11.05;2.85;;;18.30;99.90;;;;;;5036749;28;20087;-80
2022/04/14 11:24:41;;;;;;;14.00;3.05;;;18.30;99.90;;;;;;5043604;28;20116;-81
2022/04/14 11:27:29;;;;;;;7.57;2.47;;;18.20;99.90;;;;;;5042951;28;20060;-81
2022/04/14 11:30:00;;;;;;;6.35;2.00;;;18.20;99.90;;;;;;5039298;28;20032;-80
2022/04/14 11:32:39;;;;;;;7.47;2.05;;;18.20;99.90;;;;;;5041460;28;20048;-80
2022/04/14 11:35:13;;;;;;;8.70;1.80;;;18.10;99.90;;;;;;5033758;28;20030;-80
2022/04/14 11:37:47;;;;;;;8.82;1.63;;;18.10;99.90;;;;;;5032601;28;20662;-80
2022/04/14 11:40:18;;;;;;;;;;;18.10;99.90;;;;;;5028625;28;20069;-81
2022/04/14 11:42:50;;;;;;;9.02;3.42;;;18.00;99.90;;;;;;5040523;28;19952;-80
2022/04/14 11:45:24;;;;;;;8.32;2.13;;;18.00;99.90;;;;;;5043143;28;20040;-81
2022/04/14 11:47:55;;;;;;;6.93;2.20;;;18.10;99.90;;;;;;5042450;28;20093;-80
2022/04/14 11:50:26;;;;;;;5.47;1.77;;;18.00;99.90;;;;;;5035686;28;20402;-80
2022/04/14 11:53:04;;;;;;;7.68;2.30;;;18.00;99.90;;;;;;5022016;28;20044;-80
2022/04/14 11:55:39;;;;;;;8.45;2.10;;;18.10;99.90;;;;;;5030892;28;20034;-80
2022/04/14 11:58:12;;;;;;;5.70;1.73;;;18.10;99.90;;;;;;5024085;28;20113;-80
2022/04/14 12:00:42;;;;;;;7.50;1.92;;;18.10;99.90;;;;;;5026388;28;20113;-80
2022/04/14 12:03:10;;;;;;;11.43;2.50;;;18.10;99.90;;;;;;5027538;28;20132;-80
2022/04/14 12:05:37;;;;;;;5.32;1.50;;;18.10;99.90;;;;;;5034762;28;20096;-80
2022/04/14 12:08:22;;;;;;;5.88;1.80;;;18.10;99.90;;;;;;5043394;28;20032;-80
2022/04/14 12:10:49;;;;;;;4.55;1.80;;;18.10;99.90;;;;;;5036250;28;20058;-80
2022/04/14 12:13:17;;;;;;;6.90;1.88;;;18.10;99.90;;;;;;5037309;28;20033;-80
2022/04/14 12:16:04;;;;;;;5.97;2.05;;;18.00;99.90;;;;;;5029112;28;20484;-80
2022/04/14 12:18:36;;;;;;;6.22;1.67;;;18.00;99.90;;;;;;5025693;28;20021;-80
2022/04/14 12:21:04;;;;;;;6.22;2.13;;;17.90;99.90;;;;;;5038691;28;20064;-80
2022/04/14 12:23:33;;;;;;;7.90;2.33;;;17.90;99.90;;;;;;5038651;28;20367;-79
2022/04/14 12:26:05;;;;;;;7.10;1.92;;;17.90;99.90;;;;;;5033566;28;20537;-80
2022/04/14 12:28:32;;;;;;;4.32;2.10;;;17.90;99.90;;;;;;5032973;28;20018;-79
2022/04/14 12:31:10;;;;;;;6.45;2.33;;;17.90;99.90;;;;;;5027243;28;20039;-80
2022/04/14 12:33:40;;;;;;;6.90;2.20;;;17.90;99.90;;;;;;5036453;28;20026;-79
2022/04/14 12:36:10;;;;;;;6.20;2.20;;;17.80;99.90;;;;;;5033643;28;20034;-79
2022/04/14 12:38:50;;;;;;;6.35;2.05;;;17.80;99.90;;;;;;5035747;28;20109;-80
2022/04/14 12:41:22;;;;;;;7.80;2.20;;;17.80;99.90;;;;;;5042064;28;20060;-80
2022/04/14 12:43:50;;;;;;;6.38;1.90;;;17.80;99.90;;;;;;5035504;28;20036;-79
2022/04/14 12:46:26;;;;;;;6.30;2.08;;;17.80;99.90;;;;;;5039888;28;20028;-80
2022/04/14 12:49:11;;;;;;;7.90;2.50;;;17.80;99.90;;;;;;5039900;28;20025;-79
2022/04/14 12:51:45;;;;;;;8.30;2.15;;;17.80;99.90;;;;;;5042479;28;20042;-80
2022/04/14 12:54:17;;;;;;;19.23;3.97;;;17.80;99.90;;;;;;5042225;28;20037;-80
2022/04/14 12:57:02;;;;;;;9.27;2.65;;;17.70;99.90;;;;;;5027200;28;20029;-80
2022/04/14 12:59:32;;;;;;;9.02;3.03;;;17.70;99.90;;;;;;5037114;28;20034;-79
2022/04/14 13:02:02;;;;;;;7.65;1.95;;;17.70;99.90;;;;;;5045643;28;20021;-81
2022/04/14 13:04:38;;;;;;;6.35;2.28;;;17.80;99.90;;;;;;5038698;28;20036;-80
2022/04/14 13:07:13;;;;;;;6.30;1.95;;;17.80;99.90;;;;;;5038690;28;20048;-80
2022/04/14 13:10:01;;;;;;;6.25;2.65;;;17.80;99.90;;;;;;5031981;28;20022;-80